Time,TemperatureF,DewpointF,PressureIn,WindDirection,WindDirectionDegrees,WindSpeedMPH,WindSpeedGustMPH,Humidity,HourlyPrecipIn,Conditions,Clouds,dailyrainin,SoftwareType,DateUTC
2013-02-03 00:02:00,7.5,-3.5,28.94,SSE,158,0.0,0.0,60,0.00,,---,0.00,VWS V14.01,2013-02-03 06:02:00,
2013-02-03 00:08:00,7.7,-3.3,28.94,SSE,158,0.0,0.0,60,0.00,,---,0.00,VWS V14.01,2013-02-03 06:08:00,
2013-02-03 00:13:00,7.7,-3.3,28.94,SSE,158,0.0,0.0,60,0.00,,---,0.00,VWS V14.01,2013-02-03 06:13:00,
2013-02-03 00:18:00,7.7,-3.3,28.94,SSE,158,0.0,0.0,60,0.00,,---,0.00,VWS V14.01,2013-02-03 06:18:00,
2013-02-03 00:23:00,7.5,-3.5,28.94,SSE,158,0.0,0.0,60,0.00,,---,0.00,VWS V14.01,2013-02-03 06:23:00,
2013-02-03 00:28:00,7.5,-3.5,28.94,SSE,158,0.0,0.0,60,0.00,,---,0.00,VWS V14.01,2013-02-03 06:28:00,
2013-02-03 00:33:00,7.7,-3.3,28.94,SSE,158,0.0,0.0,60,0.00,,---,0.00,VWS V14.01,2013-02-03 06:33:00,
2013-02-03 00:38:00,7.7,-3.3,28.94,SSE,158,0.0,0.0,60,0.00,,---,0.00,VWS V14.01,2013-02-03 06:38:00,
2013-02-03 00:43:00,7.7,-3.3,28.94,SSE,158,0.0,0.0,60,0.00,,---,0.00,VWS V14.01,2013-02-03 06:43:00,
2013-02-03 00:48:00,7.5,-3.5,28.94,SSE,158,0.0,0.0,60,0.00,,---,0.00,VWS V14.01,2013-02-03 06:48:00,
2013-02-03 00:53:00,7.5,-3.5,28.94,SSE,158,0.0,0.0,60,0.00,,---,0.00,VWS V14.01,2013-02-03 06:53:00,
2013-02-03 00:58:00,7.5,-3.5,28.94,SSE,158,0.0,0.0,60,0.00,,---,0.00,VWS V14.01,2013-02-03 06:58:00,
2013-02-03 01:03:00,7.5,-3.5,28.94,SSE,158,0.0,0.0,60,0.00,,---,0.00,VWS V14.01,2013-02-03 07:03:00,
2013-02-03 01:08:00,7.5,-3.5,28.94,SSE,158,2.2,2.2,60,0.00,,---,0.00,VWS V14.01,2013-02-03 07:08:00,
2013-02-03 01:13:00,7.5,-3.5,28.94,SSE,158,0.0,2.2,60,0.00,,---,0.00,VWS V14.01,2013-02-03 07:13:00,
2013-02-03 01:18:00,7.5,-3.5,28.94,SSE,158,0.0,0.0,60,0.00,,---,0.00,VWS V14.01,2013-02-03 07:18:00,
2013-02-03 01:23:00,7.5,-3.5,28.94,SSE,158,0.0,0.0,60,0.00,,---,0.00,VWS V14.01,2013-02-03 07:23:00,
2013-02-03 01:28:00,7.5,-3.5,28.94,SSE,158,0.0,0.0,60,0.00,,---,0.00,VWS V14.01,2013-02-03 07:28:00,
2013-02-03 01:33:00,7.5,-3.5,28.94,SSE,158,0.0,0.0,60,0.00,,---,0.00,VWS V14.01,2013-02-03 07:33:00,
2013-02-03 01:38:00,7.5,-3.5,28.94,SSE,158,0.0,0.0,60,0.00,,---,0.00,VWS V14.01,2013-02-03 07:38:00,
2013-02-03 01:43:00,7.5,-3.5,28.94,SSE,158,0.0,0.0,60,0.00,,---,0.00,VWS V14.01,2013-02-03 07:43:00,
2013-02-03 01:48:00,7.5,-3.5,28.94,SSE,158,0.0,0.0,60,0.00,,---,0.00,VWS V14.01,2013-02-03 07:48:00,
2013-02-03 01:53:00,7.7,-3.3,28.94,SSE,158,0.0,0.0,60,0.00,,---,0.00,VWS V14.01,2013-02-03 07:53:00,
2013-02-03 01:58:00,7.5,-3.5,28.94,SSE,158,0.0,0.0,60,0.00,,---,0.00,VWS V14.01,2013-02-03 07:58:00,
2013-02-03 02:03:00,7.5,-3.5,28.94,SSE,158,0.0,0.0,60,0.00,,---,0.00,VWS V14.01,2013-02-03 08:03:00,
2013-02-03 02:08:00,7.5,-3.5,28.94,SSE,158,0.0,0.0,60,0.00,,---,0.00,VWS V14.01,2013-02-03 08:08:00,
2013-02-03 02:13:00,7.5,-3.5,28.94,SSE,158,2.7,2.7,60,0.00,,---,0.00,VWS V14.01,2013-02-03 08:13:00,
2013-02-03 02:18:00,7.5,-3.5,28.91,SSE,158,2.7,2.7,60,0.00,,---,0.00,VWS V14.01,2013-02-03 08:18:00,
2013-02-03 02:23:00,7.5,-3.5,28.91,SSE,158,3.1,3.1,60,0.00,,---,0.00,VWS V14.01,2013-02-03 08:23:00,
2013-02-03 02:28:00,7.5,-3.5,28.91,SSE,158,0.0,3.1,60,0.00,,---,0.00,VWS V14.01,2013-02-03 08:28:00,
2013-02-03 02:33:00,7.5,-3.5,28.94,SSE,158,4.0,4.0,60,0.00,,---,0.00,VWS V14.01,2013-02-03 08:33:00,
2013-02-03 02:38:00,7.5,-3.5,28.94,SSE,158,2.2,3.1,60,0.00,,---,0.00,VWS V14.01,2013-02-03 08:38:00,
2013-02-03 02:43:00,7.5,-3.5,28.94,SSE,158,2.7,3.1,60,0.00,,---,0.00,VWS V14.01,2013-02-03 08:43:00,
2013-02-03 02:48:00,7.5,-3.5,28.94,SSE,158,2.7,4.0,60,0.00,,---,0.00,VWS V14.01,2013-02-03 08:48:00,
2013-02-03 02:53:00,7.5,-3.5,28.94,SSE,158,3.1,3.1,60,0.00,,---,0.00,VWS V14.01,2013-02-03 08:53:00,
2013-02-03 02:58:00,7.5,-3.5,28.94,SSE,158,3.1,3.6,60,0.00,,---,0.00,VWS V14.01,2013-02-03 08:58:00,
2013-02-03 03:03:00,7.5,-3.5,28.91,SSE,158,3.1,3.1,60,0.00,,---,0.00,VWS V14.01,2013-02-03 09:03:00,
2013-02-03 03:08:00,7.5,-3.5,28.91,SSE,158,3.6,3.6,60,0.00,,---,0.00,VWS V14.01,2013-02-03 09:08:00,
2013-02-03 03:13:00,7.7,-3.3,28.91,SSE,158,3.6,4.0,60,0.00,,---,0.00,VWS V14.01,2013-02-03 09:13:00,
2013-02-03 03:18:00,7.7,-3.3,28.91,SSE,158,4.0,4.0,60,0.00,,---,0.00,VWS V14.01,2013-02-03 09:18:00,
2013-02-03 03:23:00,7.7,-3.3,28.91,SSE,158,4.0,4.0,60,0.00,,---,0.00,VWS V14.01,2013-02-03 09:23:00,
2013-02-03 03:28:00,7.7,-3.3,28.91,SSE,158,3.1,4.0,60,0.00,,---,0.00,VWS V14.01,2013-02-03 09:28:00,
2013-02-03 03:33:00,7.9,-3.1,28.91,SSE,158,2.7,3.6,60,0.00,,---,0.00,VWS V14.01,2013-02-03 09:33:00,
2013-02-03 03:38:00,7.9,-3.1,28.91,SSE,158,4.5,5.8,60,0.00,,---,0.00,VWS V14.01,2013-02-03 09:38:00,
2013-02-03 03:43:00,8.1,-2.9,28.91,SSE,158,5.4,5.4,60,0.00,,---,0.00,VWS V14.01,2013-02-03 09:43:00,
2013-02-03 03:48:00,8.1,-2.9,28.91,SSW,202,4.9,6.3,60,0.00,,---,0.00,VWS V14.01,2013-02-03 09:48:00,
2013-02-03 03:53:00,8.1,-2.9,28.91,SW,225,6.7,6.7,60,0.00,,---,0.00,VWS V14.01,2013-02-03 09:53:00,
2013-02-03 03:58:00,8.1,-2.9,28.91,WSW,248,4.9,6.3,60,0.00,,---,0.00,VWS V14.01,2013-02-03 09:58:00,
2013-02-03 04:03:00,8.1,-2.9,28.94,WSW,248,5.8,5.8,60,0.00,,---,0.00,VWS V14.01,2013-02-03 10:03:00,
2013-02-03 04:08:00,8.1,-2.9,28.94,WSW,248,5.4,7.2,60,0.00,,---,0.00,VWS V14.01,2013-02-03 10:08:00,
2013-02-03 04:13:00,8.4,-2.6,28.94,WSW,248,7.6,7.6,60,0.00,,---,0.00,VWS V14.01,2013-02-03 10:13:00,
2013-02-03 04:18:00,8.6,-2.4,28.94,West,270,8.7,8.7,60,0.00,,---,0.00,VWS V14.01,2013-02-03 10:18:00,
2013-02-03 04:23:00,8.6,-2.4,28.94,West,270,6.7,6.7,60,0.00,,---,0.00,VWS V14.01,2013-02-03 10:23:00,
2013-02-03 04:28:00,8.6,-2.4,28.94,West,270,7.6,7.6,60,0.00,,---,0.00,VWS V14.01,2013-02-03 10:28:00,
2013-02-03 04:33:00,8.6,-2.4,28.94,WNW,292,11.0,11.0,60,0.00,,---,0.00,VWS V14.01,2013-02-03 10:33:00,
2013-02-03 04:38:00,8.6,-2.4,28.94,West,270,8.1,8.1,60,0.00,,---,0.00,VWS V14.01,2013-02-03 10:38:00,
2013-02-03 04:43:00,8.6,-2.4,28.94,West,270,5.4,10.1,60,0.00,,---,0.00,VWS V14.01,2013-02-03 10:43:00,
2013-02-03 04:48:00,8.6,-2.4,28.94,West,270,6.3,8.3,60,0.00,,---,0.00,VWS V14.01,2013-02-03 10:48:00,
2013-02-03 04:53:00,8.6,-2.4,28.94,West,270,10.1,10.5,60,0.00,,---,0.00,VWS V14.01,2013-02-03 10:53:00,
2013-02-03 04:58:00,8.6,-2.4,28.94,West,270,5.4,7.6,60,0.00,,---,0.00,VWS V14.01,2013-02-03 10:58:00,
2013-02-03 05:03:00,8.4,-2.6,28.94,West,270,7.6,11.9,60,0.00,,---,0.00,VWS V14.01,2013-02-03 11:03:00,
2013-02-03 05:08:00,8.4,-2.6,28.94,West,270,8.3,8.7,60,0.00,,---,0.00,VWS V14.01,2013-02-03 11:08:00,
2013-02-03 05:13:00,8.4,-2.6,28.94,West,270,6.3,6.3,60,0.00,,---,0.00,VWS V14.01,2013-02-03 11:13:00,
2013-02-03 05:18:00,8.4,-2.6,28.94,West,270,4.9,7.2,60,0.00,,---,0.00,VWS V14.01,2013-02-03 11:18:00,
2013-02-03 05:23:00,8.4,-2.6,28.94,West,270,3.1,7.6,60,0.00,,---,0.00,VWS V14.01,2013-02-03 11:23:00,
2013-02-03 05:28:00,8.4,-2.6,28.94,West,270,5.8,8.3,60,0.00,,---,0.00,VWS V14.01,2013-02-03 11:28:00,
2013-02-03 05:33:00,8.4,-2.6,28.94,West,270,8.1,8.3,60,0.00,,---,0.00,VWS V14.01,2013-02-03 11:33:00,
2013-02-03 05:38:00,8.2,-2.8,28.94,West,270,5.8,5.8,60,0.00,,---,0.00,VWS V14.01,2013-02-03 11:38:00,
2013-02-03 05:43:00,8.2,-2.8,28.94,West,270,5.4,7.6,60,0.00,,---,0.00,VWS V14.01,2013-02-03 11:43:00,
2013-02-03 05:48:00,8.2,-2.8,28.97,West,270,5.8,8.3,60,0.00,,---,0.00,VWS V14.01,2013-02-03 11:48:00,
2013-02-03 05:53:00,8.1,-2.9,28.97,West,270,7.2,8.3,60,0.00,,---,0.00,VWS V14.01,2013-02-03 11:53:00,
2013-02-03 05:58:00,8.1,-2.9,28.97,West,270,8.3,8.3,60,0.00,,---,0.00,VWS V14.01,2013-02-03 11:58:00,
2013-02-03 06:03:00,7.9,-3.1,28.97,West,270,7.6,7.6,60,0.00,,---,0.00,VWS V14.01,2013-02-03 12:03:00,
2013-02-03 06:08:00,7.9,-3.1,28.97,West,270,6.3,8.1,60,0.00,,---,0.00,VWS V14.01,2013-02-03 12:08:00,
2013-02-03 06:13:00,7.9,-3.1,28.97,West,270,7.6,8.1,60,0.00,,---,0.00,VWS V14.01,2013-02-03 12:13:00,
2013-02-03 06:18:00,7.9,-3.1,28.97,West,270,8.3,12.8,60,0.00,,---,0.00,VWS V14.01,2013-02-03 12:18:00,
2013-02-03 06:23:00,7.9,-3.1,28.97,West,270,5.8,7.6,60,0.00,,---,0.00,VWS V14.01,2013-02-03 12:23:00,
2013-02-03 06:28:00,7.9,-3.1,28.97,West,270,4.9,5.8,60,0.00,,---,0.00,VWS V14.01,2013-02-03 12:28:00,
2013-02-03 06:33:00,7.9,-3.1,28.97,West,270,3.6,5.4,60,0.00,,---,0.00,VWS V14.01,2013-02-03 12:33:00,
2013-02-03 06:38:00,7.7,-3.3,28.97,West,270,6.3,8.3,60,0.00,,---,0.00,VWS V14.01,2013-02-03 12:38:00,
2013-02-03 06:43:00,7.7,-3.3,28.97,West,270,4.0,8.1,60,0.00,,---,0.00,VWS V14.01,2013-02-03 12:43:00,
2013-02-03 06:48:00,7.7,-3.3,28.97,West,270,8.1,8.1,60,0.00,,---,0.00,VWS V14.01,2013-02-03 12:48:00,
2013-02-03 06:53:00,7.7,-3.3,28.97,West,270,4.0,7.6,60,0.00,,---,0.00,VWS V14.01,2013-02-03 12:53:00,
2013-02-03 06:58:00,7.7,-3.3,28.97,West,270,7.2,7.2,60,0.00,,---,0.00,VWS V14.01,2013-02-03 12:58:00,
2013-02-03 07:03:00,7.5,-3.5,28.97,West,270,4.9,10.5,60,0.00,,---,0.00,VWS V14.01,2013-02-03 13:03:00,
2013-02-03 07:09:00,7.2,-3.8,28.97,West,270,7.2,7.6,60,0.00,,---,0.00,VWS V14.01,2013-02-03 13:09:00,
2013-02-03 07:14:00,7.0,-4.0,28.97,West,270,7.2,7.2,60,0.00,,---,0.00,VWS V14.01,2013-02-03 13:14:00,
2013-02-03 07:19:00,6.4,-4.5,28.97,West,270,4.0,6.3,60,0.00,,---,0.00,VWS V14.01,2013-02-03 13:19:00,
2013-02-03 07:24:00,6.1,-4.8,28.97,West,270,4.9,4.9,60,0.00,,---,0.00,VWS V14.01,2013-02-03 13:24:00,
2013-02-03 07:29:00,5.9,-5.0,28.97,West,270,4.9,5.4,60,0.00,,---,0.00,VWS V14.01,2013-02-03 13:29:00,
2013-02-03 07:34:00,5.7,-5.2,28.97,West,270,5.8,6.3,60,0.00,,---,0.00,VWS V14.01,2013-02-03 13:34:00,
2013-02-03 07:39:00,5.5,-5.3,28.97,West,270,3.6,6.3,60,0.00,,---,0.00,VWS V14.01,2013-02-03 13:39:00,
2013-02-03 07:44:00,5.4,-5.5,28.97,West,270,3.6,4.9,60,0.00,,---,0.00,VWS V14.01,2013-02-03 13:44:00,
2013-02-03 07:49:00,5.2,-5.7,29.00,West,270,5.4,5.4,60,0.00,,---,0.00,VWS V14.01,2013-02-03 13:49:00,
2013-02-03 07:54:00,5.4,-5.5,29.00,West,270,5.8,7.6,60,0.00,,---,0.00,VWS V14.01,2013-02-03 13:54:00,
2013-02-03 08:00:00,5.4,-5.5,29.00,West,270,7.6,7.6,60,0.00,,---,0.00,VWS V14.01,2013-02-03 14:00:00,
2013-02-03 08:05:00,5.4,-5.5,28.97,West,270,2.7,7.2,60,0.00,,---,0.00,VWS V14.01,2013-02-03 14:05:00,
2013-02-03 08:10:00,5.5,-5.3,28.97,West,270,6.7,7.6,60,0.00,,---,0.00,VWS V14.01,2013-02-03 14:10:00,
2013-02-03 08:15:00,5.5,-5.3,28.97,West,270,4.5,5.8,60,0.00,,---,0.00,VWS V14.01,2013-02-03 14:15:00,
2013-02-03 08:20:00,5.9,-5.0,28.97,West,270,6.3,6.3,60,0.00,,---,0.00,VWS V14.01,2013-02-03 14:20:00,
2013-02-03 08:25:00,5.9,-5.0,28.97,West,270,4.9,4.9,60,0.00,,---,0.00,VWS V14.01,2013-02-03 14:25:00,
2013-02-03 08:30:00,5.9,-5.0,29.00,West,270,4.5,5.8,60,0.00,,---,0.00,VWS V14.01,2013-02-03 14:30:00,
2013-02-03 08:35:00,6.1,-4.8,29.00,West,270,5.8,5.8,60,0.00,,---,0.00,VWS V14.01,2013-02-03 14:35:00,
2013-02-03 08:40:00,6.1,-4.8,29.00,West,270,4.9,5.4,60,0.00,,---,0.00,VWS V14.01,2013-02-03 14:40:00,
2013-02-03 08:45:00,6.1,-4.8,29.00,West,270,5.4,5.8,60,0.00,,---,0.00,VWS V14.01,2013-02-03 14:45:00,
2013-02-03 08:50:00,6.1,-4.8,29.00,West,270,6.3,6.3,60,0.00,,---,0.00,VWS V14.01,2013-02-03 14:50:00,
2013-02-03 08:55:00,6.1,-4.8,29.00,West,270,4.0,5.4,60,0.00,,---,0.00,VWS V14.01,2013-02-03 14:55:00,
2013-02-03 09:01:00,6.3,-4.6,29.00,West,270,7.6,7.6,60,0.00,,---,0.00,VWS V14.01,2013-02-03 15:01:00,
2013-02-03 09:06:00,6.4,-4.5,29.00,West,270,8.3,8.7,60,0.00,,---,0.00,VWS V14.01,2013-02-03 15:06:00,
2013-02-03 09:11:00,6.6,-4.3,29.00,West,270,4.9,5.4,60,0.00,,---,0.00,VWS V14.01,2013-02-03 15:11:00,
2013-02-03 09:16:00,6.8,-4.1,29.00,West,270,6.3,6.3,60,0.00,,---,0.00,VWS V14.01,2013-02-03 15:16:00,
2013-02-03 09:21:00,7.0,-4.0,29.00,West,270,5.8,5.8,60,0.00,,---,0.00,VWS V14.01,2013-02-03 15:21:00,
2013-02-03 09:26:00,7.0,-4.0,29.00,West,270,5.4,6.3,60,0.00,,---,0.00,VWS V14.01,2013-02-03 15:26:00,
2013-02-03 09:31:00,7.2,-3.8,29.00,West,270,11.0,11.0,60,0.00,,---,0.00,VWS V14.01,2013-02-03 15:31:00,
2013-02-03 09:36:00,7.3,-3.6,29.00,West,270,7.6,7.6,60,0.00,,---,0.00,VWS V14.01,2013-02-03 15:36:00,
2013-02-03 09:41:00,7.5,-3.5,29.00,West,270,5.4,8.1,60,0.00,,---,0.00,VWS V14.01,2013-02-03 15:41:00,
2013-02-03 09:46:00,7.7,-3.3,29.00,West,270,8.7,8.7,60,0.00,,---,0.00,VWS V14.01,2013-02-03 15:46:00,
2013-02-03 09:51:00,7.7,-3.3,29.00,West,270,5.4,8.1,60,0.00,,---,0.00,VWS V14.01,2013-02-03 15:51:00,
2013-02-03 09:56:00,7.7,-3.3,29.00,West,270,7.2,9.6,60,0.00,,---,0.00,VWS V14.01,2013-02-03 15:56:00,
2013-02-03 10:01:00,7.7,-3.3,29.00,West,270,6.3,8.7,60,0.00,,---,0.00,VWS V14.01,2013-02-03 16:01:00,
2013-02-03 10:06:00,7.9,-3.1,29.00,West,270,5.4,8.1,60,0.00,,---,0.00,VWS V14.01,2013-02-03 16:06:00,
2013-02-03 10:11:00,7.7,-3.3,29.00,West,270,5.8,8.7,60,0.00,,---,0.00,VWS V14.01,2013-02-03 16:11:00,
2013-02-03 10:17:00,7.9,-3.1,29.00,West,270,4.0,5.8,60,0.00,,---,0.00,VWS V14.01,2013-02-03 16:17:00,
2013-02-03 10:22:00,8.1,-2.9,29.00,West,270,8.1,8.1,60,0.00,,---,0.00,VWS V14.01,2013-02-03 16:22:00,
2013-02-03 10:27:00,8.1,-2.9,29.00,West,270,7.6,9.2,60,0.00,,---,0.00,VWS V14.01,2013-02-03 16:27:00,
2013-02-03 10:32:00,8.1,-2.9,29.00,West,270,8.3,10.1,60,0.00,,---,0.00,VWS V14.01,2013-02-03 16:32:00,
2013-02-03 10:37:00,8.2,-2.8,29.00,West,270,6.3,7.6,60,0.00,,---,0.00,VWS V14.01,2013-02-03 16:37:00,
2013-02-03 10:42:00,8.4,-2.6,29.00,West,270,6.3,8.7,60,0.00,,---,0.00,VWS V14.01,2013-02-03 16:42:00,
2013-02-03 10:47:00,8.4,-2.6,29.00,West,270,7.6,7.6,60,0.00,,---,0.00,VWS V14.01,2013-02-03 16:47:00,
2013-02-03 10:52:00,8.4,-2.6,29.00,West,270,8.3,8.3,60,0.00,,---,0.00,VWS V14.01,2013-02-03 16:52:00,
2013-02-03 10:57:00,8.6,-2.4,29.00,West,270,8.1,8.1,60,0.00,,---,0.00,VWS V14.01,2013-02-03 16:57:00,
2013-02-03 11:02:00,8.8,-2.3,29.00,West,270,4.5,6.3,60,0.00,,---,0.00,VWS V14.01,2013-02-03 17:02:00,
2013-02-03 11:07:00,8.8,-2.3,29.00,West,270,5.8,5.8,60,0.00,,---,0.00,VWS V14.01,2013-02-03 17:07:00,
2013-02-03 11:12:00,8.8,-2.3,29.00,West,270,5.4,5.4,60,0.00,,---,0.00,VWS V14.01,2013-02-03 17:12:00,
2013-02-03 11:17:00,9.0,-2.1,29.00,West,270,8.1,8.3,60,0.00,,---,0.00,VWS V14.01,2013-02-03 17:17:00,
2013-02-03 11:22:00,9.1,-1.9,29.00,West,270,4.0,4.9,60,0.00,,---,0.00,VWS V14.01,2013-02-03 17:22:00,
2013-02-03 11:27:00,9.3,-1.7,29.00,West,270,5.4,6.3,60,0.00,,---,0.00,VWS V14.01,2013-02-03 17:27:00,
2013-02-03 11:32:00,9.7,-1.4,29.00,West,270,5.4,5.8,60,0.00,,---,0.00,VWS V14.01,2013-02-03 17:32:00,
2013-02-03 11:37:00,9.5,-1.6,29.00,West,270,4.9,6.3,60,0.00,,---,0.00,VWS V14.01,2013-02-03 17:37:00,
2013-02-03 11:42:00,9.7,-1.4,29.00,West,270,6.3,6.3,60,0.00,,---,0.00,VWS V14.01,2013-02-03 17:42:00,
2013-02-03 11:47:00,10.0,-1.1,29.00,West,270,4.9,8.1,60,0.00,,---,0.00,VWS V14.01,2013-02-03 17:47:00,
2013-02-03 11:52:00,10.2,-0.9,29.00,West,270,3.1,6.3,60,0.00,,---,0.00,VWS V14.01,2013-02-03 17:52:00,
2013-02-03 11:58:00,10.4,-0.7,29.00,West,270,8.3,8.3,60,0.00,,---,0.00,VWS V14.01,2013-02-03 17:58:00,
2013-02-03 12:03:00,10.0,-1.1,29.00,West,270,7.6,11.0,60,0.00,,---,0.00,VWS V14.01,2013-02-03 18:03:00,
2013-02-03 12:08:00,10.4,-0.7,29.00,West,270,5.4,5.4,60,0.00,,---,0.00,VWS V14.01,2013-02-03 18:08:00,
2013-02-03 12:13:00,10.6,-0.6,29.00,West,270,5.4,7.6,60,0.00,,---,0.00,VWS V14.01,2013-02-03 18:13:00,
2013-02-03 12:18:00,10.4,-0.7,29.00,West,270,8.3,8.3,60,0.00,,---,0.00,VWS V14.01,2013-02-03 18:18:00,
2013-02-03 12:23:00,10.6,-0.6,29.00,West,270,6.7,8.1,60,0.00,,---,0.00,VWS V14.01,2013-02-03 18:23:00,
2013-02-03 12:28:00,10.8,-0.4,29.00,West,270,6.3,6.3,60,0.00,,---,0.00,VWS V14.01,2013-02-03 18:28:00,
2013-02-03 12:33:00,10.8,-0.4,29.00,West,270,8.1,8.1,60,0.00,,---,0.00,VWS V14.01,2013-02-03 18:33:00,
2013-02-03 12:38:00,10.9,-0.2,29.00,West,270,6.7,8.3,60,0.00,,---,0.00,VWS V14.01,2013-02-03 18:38:00,
2013-02-03 12:43:00,11.1,0.0,29.00,West,270,6.3,8.7,60,0.00,,---,0.00,VWS V14.01,2013-02-03 18:43:00,
2013-02-03 12:48:00,11.1,0.0,29.00,West,270,10.5,10.5,60,0.00,,---,0.00,VWS V14.01,2013-02-03 18:48:00,
2013-02-03 12:53:00,11.1,0.0,29.00,West,270,5.4,7.6,60,0.00,,---,0.00,VWS V14.01,2013-02-03 18:53:00,
2013-02-03 12:58:00,11.3,0.1,29.00,West,270,7.2,8.7,60,0.00,,---,0.00,VWS V14.01,2013-02-03 18:58:00,
2013-02-03 13:03:00,11.3,0.1,29.00,West,270,13.2,13.2,60,0.00,,---,0.00,VWS V14.01,2013-02-03 19:03:00,
2013-02-03 13:08:00,11.3,0.1,29.00,West,270,8.1,8.7,60,0.00,,---,0.00,VWS V14.01,2013-02-03 19:08:00,
2013-02-03 13:13:00,11.3,0.1,29.00,West,270,5.4,7.6,60,0.00,,---,0.00,VWS V14.01,2013-02-03 19:13:00,
2013-02-03 13:19:00,11.7,0.5,29.00,West,270,7.6,8.7,60,0.00,,---,0.00,VWS V14.01,2013-02-03 19:19:00,
2013-02-03 13:24:00,11.7,0.5,29.00,West,270,8.1,8.1,60,0.00,,---,0.00,VWS V14.01,2013-02-03 19:24:00,
2013-02-03 13:29:00,11.7,0.5,29.00,West,270,8.1,8.1,60,0.00,,---,0.00,VWS V14.01,2013-02-03 19:29:00,
2013-02-03 13:34:00,11.8,0.6,28.97,West,270,7.6,9.6,60,0.00,,---,0.00,VWS V14.01,2013-02-03 19:34:00,
2013-02-03 13:39:00,11.8,0.6,28.97,West,270,7.6,8.1,60,0.00,,---,0.00,VWS V14.01,2013-02-03 19:39:00,
2013-02-03 13:44:00,12.0,0.8,28.97,West,270,4.0,5.8,60,0.00,,---,0.00,VWS V14.01,2013-02-03 19:44:00,
2013-02-03 13:49:00,12.0,0.8,29.00,West,270,8.7,8.7,60,0.00,,---,0.00,VWS V14.01,2013-02-03 19:49:00,
2013-02-03 13:54:00,12.0,0.8,29.00,West,270,8.3,9.2,60,0.00,,---,0.00,VWS V14.01,2013-02-03 19:54:00,
2013-02-03 13:59:00,12.2,1.0,29.00,West,270,7.2,8.1,60,0.00,,---,0.00,VWS V14.01,2013-02-03 19:59:00,
2013-02-03 14:04:00,12.2,1.0,28.97,West,270,4.5,5.8,60,0.00,,---,0.00,VWS V14.01,2013-02-03 20:04:00,
2013-02-03 14:09:00,12.4,1.1,28.97,West,270,5.4,8.3,60,0.00,,---,0.00,VWS V14.01,2013-02-03 20:09:00,
2013-02-03 14:14:00,12.0,0.8,28.97,West,270,8.1,8.1,60,0.00,,---,0.00,VWS V14.01,2013-02-03 20:14:00,
2013-02-03 14:19:00,11.8,0.6,28.97,West,270,8.3,8.3,60,0.00,,---,0.00,VWS V14.01,2013-02-03 20:19:00,
2013-02-03 14:24:00,11.5,0.3,28.97,West,270,8.1,8.1,60,0.00,,---,0.00,VWS V14.01,2013-02-03 20:24:00,
2013-02-03 14:29:00,11.3,0.1,28.97,West,270,7.6,8.3,60,0.00,,---,0.00,VWS V14.01,2013-02-03 20:29:00,
2013-02-03 14:34:00,11.3,0.1,28.97,West,270,6.7,8.1,60,0.00,,---,0.00,VWS V14.01,2013-02-03 20:34:00,
2013-02-03 14:40:00,11.7,0.5,28.97,West,270,8.1,8.1,60,0.00,,---,0.00,VWS V14.01,2013-02-03 20:40:00,
2013-02-03 14:45:00,11.7,0.5,28.97,West,270,6.3,7.6,60,0.00,,---,0.00,VWS V14.01,2013-02-03 20:45:00,
2013-02-03 14:50:00,11.8,0.6,28.97,West,270,6.7,8.1,60,0.00,,---,0.00,VWS V14.01,2013-02-03 20:50:00,
2013-02-03 14:55:00,11.7,0.5,28.97,West,270,7.2,7.2,60,0.00,,---,0.00,VWS V14.01,2013-02-03 20:55:00,
2013-02-03 15:00:00,11.5,0.3,28.97,West,270,4.0,5.8,60,0.00,,---,0.00,VWS V14.01,2013-02-03 21:00:00,
2013-02-03 15:05:00,11.8,0.6,28.97,West,270,5.8,5.8,60,0.00,,---,0.00,VWS V14.01,2013-02-03 21:05:00,
2013-02-03 15:10:00,12.6,1.3,28.97,West,270,7.2,7.2,60,0.00,,---,0.00,VWS V14.01,2013-02-03 21:10:00,
2013-02-03 15:15:00,12.7,1.5,28.97,West,270,4.5,4.9,60,0.00,,---,0.00,VWS V14.01,2013-02-03 21:15:00,
2013-02-03 15:20:00,12.7,1.5,28.97,West,270,4.9,6.3,60,0.00,,---,0.00,VWS V14.01,2013-02-03 21:20:00,
2013-02-03 15:25:00,12.9,1.7,28.97,West,270,5.8,5.8,60,0.00,,---,0.00,VWS V14.01,2013-02-03 21:25:00,
2013-02-03 15:30:00,12.6,1.3,28.97,West,270,8.3,8.3,60,0.00,,---,0.00,VWS V14.01,2013-02-03 21:30:00,
2013-02-03 15:35:00,12.6,1.3,28.97,West,270,6.7,8.7,60,0.00,,---,0.00,VWS V14.01,2013-02-03 21:35:00,
2013-02-03 15:40:00,12.2,1.0,28.97,West,270,4.9,8.1,60,0.00,,---,0.00,VWS V14.01,2013-02-03 21:40:00,
2013-02-03 15:45:00,11.8,0.6,29.00,West,270,6.3,6.3,60,0.00,,---,0.00,VWS V14.01,2013-02-03 21:45:00,
2013-02-03 15:50:00,11.7,0.5,29.00,West,270,3.6,7.6,60,0.00,,---,0.00,VWS V14.01,2013-02-03 21:50:00,
2013-02-03 15:55:00,11.5,0.3,29.00,West,270,3.1,4.9,60,0.00,,---,0.00,VWS V14.01,2013-02-03 21:55:00,
2013-02-03 16:01:00,11.3,0.1,28.97,West,270,4.0,6.3,60,0.00,,---,0.00,VWS V14.01,2013-02-03 22:01:00,
2013-02-03 16:06:00,11.1,0.0,28.97,West,270,4.0,5.8,60,0.00,,---,0.00,VWS V14.01,2013-02-03 22:06:00,
2013-02-03 16:11:00,11.1,0.0,28.97,West,270,4.0,5.4,60,0.00,,---,0.00,VWS V14.01,2013-02-03 22:11:00,
2013-02-03 16:16:00,11.3,0.1,28.97,West,270,3.6,3.6,60,0.00,,---,0.00,VWS V14.01,2013-02-03 22:16:00,
2013-02-03 16:21:00,11.7,0.5,28.97,West,270,4.9,5.4,60,0.00,,---,0.00,VWS V14.01,2013-02-03 22:21:00,
2013-02-03 16:26:00,11.8,0.6,28.97,West,270,4.9,5.4,60,0.00,,---,0.00,VWS V14.01,2013-02-03 22:26:00,
2013-02-03 16:31:00,12.0,0.8,28.97,West,270,4.5,4.5,60,0.00,,---,0.00,VWS V14.01,2013-02-03 22:31:00,
2013-02-03 16:36:00,11.8,0.6,28.97,West,270,4.0,5.8,60,0.00,,---,0.00,VWS V14.01,2013-02-03 22:36:00,
2013-02-03 16:41:00,11.8,0.6,28.97,West,270,5.4,5.4,60,0.00,,---,0.00,VWS V14.01,2013-02-03 22:41:00,
2013-02-03 16:46:00,11.8,0.6,28.97,West,270,3.6,5.4,60,0.00,,---,0.00,VWS V14.01,2013-02-03 22:46:00,
2013-02-03 16:51:00,11.8,0.6,28.97,West,270,4.9,4.9,60,0.00,,---,0.00,VWS V14.01,2013-02-03 22:51:00,
2013-02-03 16:56:00,11.8,0.6,28.97,West,270,3.6,4.9,60,0.00,,---,0.00,VWS V14.01,2013-02-03 22:56:00,
2013-02-03 17:01:00,11.8,0.6,28.97,West,270,4.9,5.8,60,0.00,,---,0.00,VWS V14.01,2013-02-03 23:01:00,
2013-02-03 17:06:00,11.8,0.6,28.97,West,270,4.9,5.8,60,0.00,,---,0.00,VWS V14.01,2013-02-03 23:06:00,
2013-02-03 17:12:00,11.8,0.6,28.97,West,270,3.1,4.0,60,0.00,,---,0.00,VWS V14.01,2013-02-03 23:12:00,
2013-02-03 17:17:00,11.8,0.6,28.97,West,270,4.5,5.4,60,0.00,,---,0.00,VWS V14.01,2013-02-03 23:17:00,
2013-02-03 17:22:00,11.8,0.6,28.97,West,270,3.1,3.1,60,0.00,,---,0.00,VWS V14.01,2013-02-03 23:22:00,
2013-02-03 17:27:00,11.8,0.6,28.97,West,270,4.0,5.4,60,0.00,,---,0.00,VWS V14.01,2013-02-03 23:27:00,
2013-02-03 17:32:00,11.8,0.6,28.97,West,270,5.4,5.4,60,0.00,,---,0.00,VWS V14.01,2013-02-03 23:32:00,
2013-02-03 17:37:00,11.8,0.6,28.97,West,270,3.1,4.0,60,0.00,,---,0.00,VWS V14.01,2013-02-03 23:37:00,
2013-02-03 17:42:00,11.8,0.6,28.97,West,270,3.1,3.6,60,0.00,,---,0.00,VWS V14.01,2013-02-03 23:42:00,
2013-02-03 17:47:00,11.8,0.6,28.97,West,270,2.7,2.7,60,0.00,,---,0.00,VWS V14.01,2013-02-03 23:47:00,
2013-02-03 17:52:00,11.8,0.6,28.97,West,270,3.1,3.6,60,0.00,,---,0.00,VWS V14.01,2013-02-03 23:52:00,
2013-02-03 17:57:00,11.8,0.6,28.97,West,270,2.7,4.0,60,0.00,,---,0.00,VWS V14.01,2013-02-03 23:57:00,
2013-02-03 18:02:00,11.8,0.6,28.97,West,270,2.7,3.6,60,0.00,,---,0.00,VWS V14.01,2013-02-04 00:02:00,
2013-02-03 18:07:00,11.8,0.6,28.97,West,270,3.1,4.0,60,0.00,,---,0.00,VWS V14.01,2013-02-04 00:07:00,
2013-02-03 18:12:00,11.8,0.6,28.97,West,270,3.1,3.6,60,0.00,,---,0.00,VWS V14.01,2013-02-04 00:12:00,
2013-02-03 18:17:00,11.8,0.6,28.97,West,270,3.6,3.6,60,0.00,,---,0.00,VWS V14.01,2013-02-04 00:17:00,
2013-02-03 18:23:00,12.0,0.8,28.97,West,270,3.1,3.6,60,0.00,,---,0.00,VWS V14.01,2013-02-04 00:23:00,
2013-02-03 18:28:00,12.0,0.8,28.97,West,270,3.1,3.1,60,0.00,,---,0.00,VWS V14.01,2013-02-04 00:28:00,
2013-02-03 18:33:00,11.8,0.6,28.97,West,270,3.1,3.1,60,0.00,,---,0.00,VWS V14.01,2013-02-04 00:33:00,
2013-02-03 18:38:00,12.0,0.8,28.97,West,270,3.6,3.6,60,0.00,,---,0.00,VWS V14.01,2013-02-04 00:38:00,
2013-02-03 18:43:00,12.0,0.8,28.97,West,270,3.1,4.0,60,0.00,,---,0.00,VWS V14.01,2013-02-04 00:43:00,
2013-02-03 18:48:00,12.0,0.8,28.97,West,270,2.7,3.6,60,0.00,,---,0.00,VWS V14.01,2013-02-04 00:48:00,
2013-02-03 18:53:00,12.0,0.8,28.97,West,270,2.7,2.7,60,0.00,,---,0.00,VWS V14.01,2013-02-04 00:53:00,
2013-02-03 18:58:00,11.8,0.6,28.97,West,270,0.0,3.1,60,0.00,,---,0.00,VWS V14.01,2013-02-04 00:58:00,
2013-02-03 19:03:00,11.8,0.6,28.97,West,270,0.0,2.2,60,0.00,,---,0.00,VWS V14.01,2013-02-04 01:03:00,
2013-02-03 19:08:00,11.8,0.6,28.97,West,270,2.7,3.6,60,0.00,,---,0.00,VWS V14.01,2013-02-04 01:08:00,
2013-02-03 19:13:00,11.8,0.6,28.97,West,270,3.1,3.6,60,0.00,,---,0.00,VWS V14.01,2013-02-04 01:13:00,
2013-02-03 19:18:00,11.8,0.6,28.97,West,270,4.0,4.9,60,0.00,,---,0.00,VWS V14.01,2013-02-04 01:18:00,
2013-02-03 19:23:00,11.7,0.5,28.97,West,270,4.9,4.9,60,0.00,,---,0.00,VWS V14.01,2013-02-04 01:23:00,
2013-02-03 19:28:00,11.7,0.5,28.97,West,270,2.2,2.7,60,0.00,,---,0.00,VWS V14.01,2013-02-04 01:28:00,
2013-02-03 19:34:00,11.5,0.3,28.97,West,270,0.0,0.0,60,0.00,,---,0.00,VWS V14.01,2013-02-04 01:34:00,
2013-02-03 19:39:00,11.5,0.3,28.97,West,270,0.0,0.0,60,0.00,,---,0.00,VWS V14.01,2013-02-04 01:39:00,
2013-02-03 19:44:00,11.5,0.3,28.97,West,270,0.0,0.0,60,0.00,,---,0.00,VWS V14.01,2013-02-04 01:44:00,
2013-02-03 19:49:00,11.5,0.3,28.97,West,270,0.0,0.0,60,0.00,,---,0.00,VWS V14.01,2013-02-04 01:49:00,
2013-02-03 19:54:00,11.3,0.1,28.97,West,270,0.0,0.0,60,0.00,,---,0.00,VWS V14.01,2013-02-04 01:54:00,
2013-02-03 19:59:00,11.3,0.1,28.97,West,270,0.0,0.0,60,0.00,,---,0.00,VWS V14.01,2013-02-04 01:59:00,
2013-02-03 20:04:00,11.3,0.1,28.97,West,270,0.0,0.0,60,0.00,,---,0.00,VWS V14.01,2013-02-04 02:04:00,
2013-02-03 20:09:00,11.3,0.1,28.97,West,270,0.0,0.0,60,0.00,,---,0.00,VWS V14.01,2013-02-04 02:09:00,
2013-02-03 20:14:00,11.3,0.1,28.97,West,270,0.0,0.0,60,0.00,,---,0.00,VWS V14.01,2013-02-04 02:14:00,
2013-02-03 20:19:00,11.3,0.1,28.97,West,270,0.0,0.0,60,0.00,,---,0.00,VWS V14.01,2013-02-04 02:19:00,
2013-02-03 20:24:00,11.3,0.1,28.97,West,270,0.0,0.0,60,0.00,,---,0.00,VWS V14.01,2013-02-04 02:24:00,
2013-02-03 20:29:00,11.3,0.1,28.97,West,270,0.0,0.0,60,0.00,,---,0.00,VWS V14.01,2013-02-04 02:29:00,
2013-02-03 20:34:00,11.3,0.1,28.97,West,270,0.0,0.0,60,0.00,,---,0.00,VWS V14.01,2013-02-04 02:34:00,
2013-02-03 20:39:00,11.3,0.1,28.97,West,270,0.0,0.0,60,0.00,,---,0.00,VWS V14.01,2013-02-04 02:39:00,
2013-02-03 20:44:00,11.3,0.1,28.97,West,270,0.0,0.0,60,0.00,,---,0.00,VWS V14.01,2013-02-04 02:44:00,
2013-02-03 20:49:00,11.5,0.3,28.97,West,270,0.0,0.0,60,0.00,,---,0.00,VWS V14.01,2013-02-04 02:49:00,
2013-02-03 20:54:00,11.5,0.3,28.97,West,270,0.0,0.0,60,0.00,,---,0.00,VWS V14.01,2013-02-04 02:54:00,
2013-02-03 20:59:00,11.5,0.3,28.97,West,270,0.0,0.0,60,0.00,,---,0.00,VWS V14.01,2013-02-04 02:59:00,
2013-02-03 21:05:00,11.5,0.3,28.97,West,270,0.0,0.0,60,0.00,,---,0.00,VWS V14.01,2013-02-04 03:05:00,
2013-02-03 21:10:00,11.5,0.3,28.97,West,270,0.0,0.0,60,0.00,,---,0.00,VWS V14.01,2013-02-04 03:10:00,
2013-02-03 21:15:00,11.5,0.3,28.97,West,270,0.0,0.0,60,0.00,,---,0.00,VWS V14.01,2013-02-04 03:15:00,
2013-02-03 21:20:00,11.5,0.3,28.97,West,270,0.0,0.0,60,0.00,,---,0.00,VWS V14.01,2013-02-04 03:20:00,
2013-02-03 21:25:00,11.3,0.1,28.97,West,270,0.0,0.0,60,0.00,,---,0.00,VWS V14.01,2013-02-04 03:25:00,
2013-02-03 21:30:00,11.3,0.1,28.97,West,270,0.0,0.0,60,0.00,,---,0.00,VWS V14.01,2013-02-04 03:30:00,
2013-02-03 21:35:00,11.5,0.3,28.97,West,270,0.0,0.0,60,0.00,,---,0.00,VWS V14.01,2013-02-04 03:35:00,
2013-02-03 21:40:00,11.5,0.3,28.97,West,270,0.0,0.0,60,0.00,,---,0.00,VWS V14.01,2013-02-04 03:40:00,
2013-02-03 21:45:00,11.5,0.3,28.97,West,270,0.0,0.0,60,0.00,,---,0.00,VWS V14.01,2013-02-04 03:45:00,
2013-02-03 21:50:00,11.3,0.1,28.97,West,270,0.0,0.0,60,0.00,,---,0.00,VWS V14.01,2013-02-04 03:50:00,
2013-02-03 21:55:00,11.3,0.1,28.97,West,270,0.0,0.0,60,0.00,,---,0.00,VWS V14.01,2013-02-04 03:55:00,
2013-02-03 22:00:00,11.3,0.1,28.97,West,270,0.0,0.0,60,0.00,,---,0.00,VWS V14.01,2013-02-04 04:00:00,
2013-02-03 22:06:00,11.3,0.1,28.97,West,270,0.0,0.0,60,0.00,,---,0.00,VWS V14.01,2013-02-04 04:06:00,
2013-02-03 22:11:00,11.3,0.1,28.97,West,270,0.0,0.0,60,0.00,,---,0.00,VWS V14.01,2013-02-04 04:11:00,
2013-02-03 22:16:00,11.5,0.3,28.97,West,270,0.0,0.0,60,0.00,,---,0.00,VWS V14.01,2013-02-04 04:16:00,
2013-02-03 22:21:00,11.5,0.3,28.97,West,270,0.0,0.0,60,0.00,,---,0.00,VWS V14.01,2013-02-04 04:21:00,
2013-02-03 22:26:00,11.5,0.3,28.97,West,270,0.0,0.0,60,0.00,,---,0.00,VWS V14.01,2013-02-04 04:26:00,
2013-02-03 22:31:00,11.5,0.3,28.97,West,270,0.0,0.0,60,0.00,,---,0.00,VWS V14.01,2013-02-04 04:31:00,
2013-02-03 22:36:00,11.5,0.3,28.97,West,270,0.0,0.0,60,0.00,,---,0.00,VWS V14.01,2013-02-04 04:36:00,
2013-02-03 22:41:00,11.5,0.3,28.97,West,270,0.0,0.0,60,0.00,,---,0.00,VWS V14.01,2013-02-04 04:41:00,
2013-02-03 22:46:00,11.5,0.3,28.97,West,270,0.0,0.0,60,0.00,,---,0.00,VWS V14.01,2013-02-04 04:46:00,
2013-02-03 22:51:00,11.5,0.3,28.97,West,270,0.0,0.0,60,0.00,,---,0.00,VWS V14.01,2013-02-04 04:51:00,
2013-02-03 22:56:00,11.5,0.3,28.97,West,270,0.0,0.0,60,0.00,,---,0.00,VWS V14.01,2013-02-04 04:56:00,
2013-02-03 23:01:00,11.5,0.3,28.97,West,270,0.0,0.0,60,0.00,,---,0.00,VWS V14.01,2013-02-04 05:01:00,
2013-02-03 23:02:00,11.5,0.3,28.97,West,270,0.0,0.0,60,0.00,,---,0.00,VWS V14.01,2013-02-04 05:02:00,
2013-02-03 23:06:00,11.3,0.1,28.97,West,270,0.0,0.0,60,0.00,,---,0.00,VWS V14.01,2013-02-04 05:06:00,
2013-02-03 23:11:00,11.3,0.1,28.97,West,270,0.0,0.0,60,0.00,,---,0.00,VWS V14.01,2013-02-04 05:11:00,
2013-02-03 23:16:00,11.1,0.0,28.97,West,270,2.7,3.1,60,0.00,,---,0.00,VWS V14.01,2013-02-04 05:16:00,
2013-02-03 23:21:00,11.1,0.0,28.97,West,270,0.0,0.0,60,0.00,,---,0.00,VWS V14.01,2013-02-04 05:21:00,
2013-02-03 23:26:00,10.9,-0.2,28.97,West,270,0.0,0.0,60,0.00,,---,0.00,VWS V14.01,2013-02-04 05:26:00,
2013-02-03 23:31:00,10.9,-0.2,28.97,West,270,0.0,0.0,60,0.00,,---,0.00,VWS V14.01,2013-02-04 05:31:00,
2013-02-03 23:36:00,10.9,-0.2,28.97,West,270,0.0,0.0,60,0.00,,---,0.00,VWS V14.01,2013-02-04 05:36:00,
2013-02-03 23:41:00,10.9,-0.2,28.97,West,270,0.0,0.0,60,0.00,,---,0.00,VWS V14.01,2013-02-04 05:41:00,
2013-02-03 23:46:00,10.9,-0.2,28.97,West,270,0.0,0.0,60,0.00,,---,0.00,VWS V14.01,2013-02-04 05:46:00,
2013-02-03 23:51:00,10.9,-0.2,28.97,West,270,0.0,0.0,60,0.00,,---,0.00,VWS V14.01,2013-02-04 05:51:00,
2013-02-03 23:56:00,10.9,-0.2,28.97,West,270,0.0,0.0,60,0.00,,---,0.00,VWS V14.01,2013-02-04 05:56:00,